createdAt,value
2022-07-28T00:00:35.780Z,18.55
2022-07-28T00:03:05.742Z,18.52
2022-07-28T00:05:34.509Z,18.53
2022-07-28T00:08:03.487Z,18.59
2022-07-28T00:10:32.602Z,18.56
2022-07-28T00:13:01.281Z,18.24
2022-07-28T00:15:29.758Z,18.51
2022-07-28T00:17:58.090Z,18.40
2022-07-28T00:20:28.118Z,18.31
2022-07-28T00:22:56.545Z,18.47
2022-07-28T00:25:25.272Z,18.58
2022-07-28T00:27:53.588Z,18.39
2022-07-28T00:30:22.056Z,17.70
2022-07-28T00:32:50.478Z,18.44
2022-07-28T00:35:30.180Z,18.43
2022-07-28T00:38:01.454Z,18.32
2022-07-28T00:40:44.003Z,18.34
2022-07-28T00:43:12.333Z,18.30
2022-07-28T00:45:40.733Z,18.31
2022-07-28T00:48:09.504Z,18.36
2022-07-28T00:50:41.126Z,18.27
2022-07-28T00:53:10.846Z,18.28
2022-07-28T00:56:03.638Z,18.29
2022-07-28T00:58:30.658Z,17.41
2022-07-28T01:00:59.512Z,18.25
2022-07-28T01:03:29.048Z,18.25
2022-07-28T01:06:06.414Z,18.28
2022-07-28T01:08:47.626Z,18.36
2022-07-28T01:11:23.807Z,18.37
2022-07-28T01:13:58.399Z,17.70
2022-07-28T01:16:28.823Z,18.01
2022-07-28T01:19:05.784Z,17.87
2022-07-28T01:21:37.480Z,16.71
2022-07-28T01:24:16.683Z,17.69
2022-07-28T01:26:57.036Z,17.74
2022-07-28T01:29:59.339Z,17.58
2022-07-28T01:32:33.855Z,16.61
2022-07-28T01:35:07.117Z,17.68
2022-07-28T01:37:41.376Z,17.66
2022-07-28T01:40:12.997Z,17.38
2022-07-28T01:42:49.009Z,17.65
2022-07-28T01:45:18.501Z,16.68
2022-07-28T01:47:49.652Z,16.76
2022-07-28T01:50:22.538Z,16.77
2022-07-28T01:52:52.750Z,17.37
2022-07-28T01:55:23.606Z,17.67
2022-07-28T01:57:54.750Z,17.72
2022-07-28T02:00:25.709Z,17.82
2022-07-28T02:02:59.215Z,17.80
2022-07-28T02:05:29.889Z,17.86
2022-07-28T02:08:00.908Z,17.88
2022-07-28T02:10:30.449Z,17.59
2022-07-28T02:13:01.732Z,17.73
2022-07-28T02:15:32.751Z,18.10
2022-07-28T02:18:04.026Z,17.63
2022-07-28T02:20:33.138Z,17.70
2022-07-28T02:23:01.501Z,17.69
2022-07-28T02:25:31.045Z,17.01
2022-07-28T02:28:02.465Z,17.85
2022-07-28T02:30:35.950Z,17.36
2022-07-28T02:33:09.599Z,17.55
2022-07-28T02:35:46.076Z,18.03
2022-07-28T02:38:23.059Z,18.11
2022-07-28T02:40:54.800Z,18.11
2022-07-28T02:43:49.988Z,17.62
2022-07-28T02:46:21.060Z,18.09
2022-07-28T02:48:56.011Z,18.07
2022-07-28T02:51:26.327Z,18.16
2022-07-28T02:53:55.170Z,17.27
2022-07-28T02:56:24.152Z,17.47
2022-07-28T02:58:54.123Z,17.87
2022-07-28T03:01:24.034Z,16.80
2022-07-28T03:03:55.674Z,17.17
2022-07-28T03:06:28.897Z,17.50
2022-07-28T03:08:57.693Z,17.54
2022-07-28T03:11:27.372Z,17.77
2022-07-28T03:13:55.746Z,17.48
2022-07-28T03:16:24.351Z,17.81
2022-07-28T03:18:54.163Z,17.73
2022-07-28T03:21:22.357Z,17.75
2022-07-28T03:23:52.601Z,17.70
2022-07-28T03:26:27.029Z,17.70
2022-07-28T03:28:58.009Z,17.66
2022-07-28T03:31:28.766Z,17.19
2022-07-28T03:33:59.023Z,17.67
2022-07-28T03:36:36.106Z,17.68
2022-07-28T03:39:09.069Z,17.75
2022-07-28T03:41:38.504Z,17.52
2022-07-28T03:44:07.494Z,17.29
2022-07-28T03:46:36.120Z,17.73
2022-07-28T03:49:09.852Z,17.02
2022-07-28T03:51:38.922Z,17.94
2022-07-28T03:54:07.255Z,17.91
2022-07-28T03:56:35.454Z,17.95
2022-07-28T03:59:03.713Z,18.00
2022-07-28T04:01:32.324Z,17.97
2022-07-28T04:04:00.579Z,17.11
2022-07-28T04:06:30.263Z,17.99
2022-07-28T04:08:58.432Z,18.06
2022-07-28T04:11:26.680Z,17.91
2022-07-28T04:13:55.027Z,18.24
2022-07-28T04:16:23.334Z,18.29
2022-07-28T04:18:51.684Z,18.31
2022-07-28T04:21:19.980Z,17.78
2022-07-28T04:23:49.890Z,17.69
2022-07-28T04:26:18.616Z,18.43
2022-07-28T04:28:47.546Z,18.30
2022-07-28T04:31:15.894Z,18.44
2022-07-28T04:33:44.162Z,17.95
2022-07-28T04:36:12.830Z,18.48
2022-07-28T04:38:41.111Z,18.52
2022-07-28T04:41:10.828Z,18.58
2022-07-28T04:43:39.196Z,18.53
2022-07-28T04:46:09.106Z,17.86
2022-07-28T04:48:40.388Z,18.68
2022-07-28T04:51:08.745Z,18.63
2022-07-28T04:53:37.190Z,18.85
2022-07-28T04:56:06.090Z,18.88
2022-07-28T04:58:35.871Z,18.92
2022-07-28T05:01:04.284Z,19.00
2022-07-28T05:03:36.287Z,19.06
2022-07-28T05:06:05.242Z,19.12
2022-07-28T05:08:33.634Z,19.21
2022-07-28T05:11:02.198Z,19.29
2022-07-28T05:13:33.921Z,19.22
2022-07-28T05:16:04.595Z,19.34
2022-07-28T05:18:32.973Z,19.46
2022-07-28T05:21:01.810Z,19.13
2022-07-28T05:23:30.047Z,19.32
2022-07-28T05:25:58.412Z,19.25
2022-07-28T05:28:26.784Z,19.70
2022-07-28T05:30:55.486Z,18.23
2022-07-28T05:33:29.021Z,19.48
2022-07-28T05:36:00.594Z,19.45
2022-07-28T05:38:29.226Z,19.38
2022-07-28T05:40:57.511Z,18.58
2022-07-28T05:43:25.914Z,19.36
2022-07-28T05:45:54.296Z,19.17
2022-07-28T05:48:23.647Z,19.50
2022-07-28T05:50:54.610Z,19.60
2022-07-28T05:53:22.823Z,19.62
2022-07-28T05:56:00.043Z,19.14
2022-07-28T05:58:29.277Z,19.55
2022-07-28T06:01:00.225Z,19.41
2022-07-28T06:03:30.750Z,19.71
2022-07-28T06:06:16.143Z,19.30
2022-07-28T06:08:46.862Z,19.78
2022-07-28T06:11:22.004Z,19.81
2022-07-28T06:13:52.171Z,19.02
2022-07-28T06:16:22.912Z,19.41
2022-07-28T06:18:51.966Z,19.62
2022-07-28T06:21:24.463Z,20.09
2022-07-28T06:23:52.794Z,20.00
2022-07-28T06:26:23.416Z,20.28
2022-07-28T06:28:52.103Z,20.31
2022-07-28T06:31:20.819Z,20.18
2022-07-28T06:33:49.133Z,20.35
2022-07-28T06:36:17.328Z,20.44
2022-07-28T06:38:47.123Z,20.87
2022-07-28T06:41:15.774Z,21.01
2022-07-28T06:43:44.186Z,21.06
2022-07-28T06:46:14.637Z,20.25
2022-07-28T06:48:46.262Z,21.09
2022-07-28T06:51:15.540Z,21.21
2022-07-28T06:53:43.755Z,21.17
2022-07-28T06:56:16.027Z,21.12
2022-07-28T06:58:47.020Z,21.09
2022-07-28T07:01:15.770Z,21.17
2022-07-28T07:03:44.613Z,20.44
2022-07-28T07:06:13.362Z,21.29
2022-07-28T07:08:41.562Z,21.15
2022-07-28T07:11:09.835Z,21.46
2022-07-28T07:13:39.690Z,21.62
2022-07-28T07:16:08.355Z,21.36
2022-07-28T07:18:36.600Z,21.63
2022-07-28T07:21:05.065Z,21.77
2022-07-28T07:23:33.417Z,21.85
2022-07-28T07:26:01.902Z,21.94
2022-07-28T07:28:30.050Z,21.83
2022-07-28T07:30:59.791Z,22.15
2022-07-28T07:33:28.209Z,21.71
2022-07-28T07:35:56.599Z,22.32
2022-07-28T07:38:29.045Z,22.18
2022-07-28T07:40:57.589Z,22.27
2022-07-28T07:43:26.155Z,22.76
2022-07-28T07:45:54.968Z,22.83
2022-07-28T07:48:24.797Z,23.10
2022-07-28T07:50:54.284Z,23.32
2022-07-28T07:53:23.096Z,23.47
2022-07-28T07:55:51.532Z,23.68
2022-07-28T07:58:20.141Z,23.88
2022-07-28T08:00:48.722Z,23.63
2022-07-28T08:03:17.634Z,23.84
2022-07-28T08:05:56.788Z,24.16
2022-07-28T08:08:25.981Z,24.40
2022-07-28T08:10:54.628Z,24.58
2022-07-28T08:13:23.348Z,24.90
2022-07-28T08:15:52.374Z,25.28
2022-07-28T08:18:21.479Z,25.53
2022-07-28T08:20:49.756Z,25.76
2022-07-28T08:23:24.303Z,25.98
2022-07-28T08:25:55.746Z,26.08
2022-07-28T08:28:24.011Z,26.29
2022-07-28T08:30:52.479Z,25.20
2022-07-28T08:33:22.043Z,26.07
2022-07-28T08:35:50.842Z,26.00
2022-07-28T08:38:20.532Z,25.90
2022-07-28T08:40:51.684Z,25.79
2022-07-28T08:43:30.503Z,25.68
2022-07-28T08:46:01.425Z,25.14
2022-07-28T08:48:33.267Z,25.61
2022-07-28T08:51:04.076Z,25.67
2022-07-28T08:53:35.698Z,24.96
2022-07-28T08:56:07.505Z,25.61
2022-07-28T08:58:37.879Z,24.72
2022-07-28T09:01:08.709Z,25.46
2022-07-28T09:03:38.474Z,25.49
2022-07-28T09:06:06.910Z,25.46
2022-07-28T09:08:36.643Z,24.73
2022-07-28T09:11:06.532Z,24.93
2022-07-28T09:13:36.313Z,24.61
2022-07-28T09:16:07.401Z,25.17
2022-07-28T09:18:35.776Z,25.53
2022-07-28T09:21:04.345Z,25.74
2022-07-28T09:23:46.148Z,25.97
2022-07-28T09:26:14.585Z,25.06
2022-07-28T09:28:49.990Z,26.32
2022-07-28T09:31:19.156Z,25.91
2022-07-28T09:34:00.833Z,26.43
2022-07-28T09:36:30.309Z,26.73
2022-07-28T09:39:00.135Z,26.76
2022-07-28T09:41:28.483Z,26.12
2022-07-28T09:43:56.722Z,26.54
2022-07-28T09:46:29.709Z,26.50
2022-07-28T09:49:00.100Z,26.65
2022-07-28T09:51:30.887Z,26.32
2022-07-28T09:54:11.089Z,26.30
2022-07-28T09:56:40.842Z,26.86
2022-07-28T09:59:09.479Z,25.58
2022-07-28T10:01:53.609Z,26.48
2022-07-28T10:04:33.193Z,26.33
2022-07-28T10:07:07.231Z,26.53
2022-07-28T10:09:37.641Z,26.67
2022-07-28T10:12:16.819Z,26.35
2022-07-28T10:14:46.484Z,26.12
2022-07-28T10:17:25.197Z,26.52
2022-07-28T10:19:55.258Z,26.63
2022-07-28T10:22:26.834Z,26.76
2022-07-28T10:24:57.753Z,26.69
2022-07-28T10:27:27.084Z,26.93
2022-07-28T10:30:00.195Z,27.08
2022-07-28T10:32:30.409Z,27.23
2022-07-28T10:35:04.432Z,27.38
2022-07-28T10:37:36.811Z,26.99
2022-07-28T10:40:10.550Z,27.62
2022-07-28T10:42:40.670Z,27.65
2022-07-28T10:45:12.287Z,27.50
2022-07-28T10:47:40.997Z,27.57
2022-07-28T10:50:10.971Z,27.63
2022-07-28T10:52:51.530Z,27.64
2022-07-28T10:55:34.360Z,27.53
2022-07-28T10:58:12.404Z,27.61
2022-07-28T11:00:58.403Z,27.69
2022-07-28T11:03:43.241Z,27.83
2022-07-28T11:06:28.865Z,27.98
2022-07-28T11:08:58.652Z,27.76
2022-07-28T11:11:50.131Z,27.40
2022-07-28T11:14:37.571Z,28.23
2022-07-28T11:17:23.749Z,28.23
2022-07-28T11:20:25.025Z,28.20
2022-07-28T11:22:47.569Z,28.12
2022-07-28T11:25:19.648Z,28.10
2022-07-28T11:28:07.067Z,28.19
2022-07-28T11:30:53.512Z,28.33
2022-07-28T11:33:25.201Z,28.44
2022-07-28T11:35:56.039Z,28.56
2022-07-28T11:38:24.339Z,28.10
2022-07-28T11:40:54.254Z,28.60
2022-07-28T11:43:39.546Z,28.05
2022-07-28T11:46:37.697Z,28.68
2022-07-28T11:49:21.104Z,28.56
2022-07-28T11:52:21.651Z,28.80
2022-07-28T11:54:58.433Z,27.68
2022-07-28T11:57:28.936Z,28.07
2022-07-28T12:00:03.869Z,28.57
2022-07-28T12:02:33.974Z,27.87
2022-07-28T12:05:14.609Z,28.32
2022-07-28T12:07:49.073Z,28.21
2022-07-28T12:10:54.887Z,28.02
2022-07-28T12:13:29.160Z,28.04
2022-07-28T12:15:59.443Z,28.48
2022-07-28T12:18:27.702Z,27.76
2022-07-28T12:20:56.079Z,29.16
2022-07-28T12:23:38.814Z,27.80
2022-07-28T12:26:34.479Z,29.49
2022-07-28T12:29:12.089Z,30.03
2022-07-28T12:31:54.281Z,29.91
2022-07-28T12:34:24.327Z,30.20
2022-07-28T12:36:59.487Z,30.16
2022-07-28T12:39:28.302Z,29.99
2022-07-28T12:42:05.458Z,30.43
2022-07-28T12:44:38.181Z,30.59
2022-07-28T12:47:12.301Z,30.39
2022-07-28T12:49:42.434Z,30.26
2022-07-28T12:52:22.061Z,29.79
2022-07-28T12:54:54.805Z,30.18
2022-07-28T12:57:51.663Z,30.27
2022-07-28T13:00:23.511Z,30.39
2022-07-28T13:02:55.191Z,29.65
2022-07-28T13:05:50.283Z,30.03
2022-07-28T13:08:18.943Z,30.08
2022-07-28T13:10:51.622Z,29.95
2022-07-28T13:13:24.047Z,28.61
2022-07-28T13:16:13.862Z,29.70
2022-07-28T13:18:44.541Z,29.19
2022-07-28T13:21:13.634Z,29.40
2022-07-28T13:23:42.034Z,30.08
2022-07-28T13:26:10.939Z,30.66
2022-07-28T13:28:39.814Z,31.08
2022-07-28T13:31:08.360Z,31.57
2022-07-28T13:33:37.037Z,31.25
2022-07-28T13:36:07.106Z,31.64
2022-07-28T13:38:35.418Z,31.72
2022-07-28T13:41:03.990Z,31.48
2022-07-28T13:43:35.785Z,30.72
2022-07-28T13:46:05.521Z,31.61
2022-07-28T13:48:36.093Z,31.77
2022-07-28T13:51:04.857Z,32.55
2022-07-28T13:53:34.766Z,32.05
2022-07-28T13:56:03.009Z,32.73
2022-07-28T13:58:31.361Z,33.44
2022-07-28T14:01:00.946Z,33.48
2022-07-28T14:03:50.752Z,33.33
2022-07-28T14:06:19.693Z,32.47
2022-07-28T14:08:52.832Z,32.72
2022-07-28T14:11:21.313Z,33.02
2022-07-28T14:13:52.301Z,32.78
2022-07-28T14:16:21.118Z,33.31
2022-07-28T14:18:49.747Z,33.29
2022-07-28T14:21:18.289Z,33.61
2022-07-28T14:23:46.612Z,33.47
2022-07-28T14:26:35.083Z,34.26
2022-07-28T14:29:04.976Z,33.38
2022-07-28T14:31:40.038Z,34.37
2022-07-28T14:34:08.410Z,34.08
2022-07-28T14:36:36.751Z,33.45
2022-07-28T14:39:09.154Z,33.05
2022-07-28T14:41:42.920Z,32.78
2022-07-28T14:44:15.661Z,32.28
2022-07-28T14:46:52.894Z,31.50
2022-07-28T14:49:21.505Z,29.75
2022-07-28T14:51:50.669Z,29.55
2022-07-28T14:54:19.585Z,29.78
2022-07-28T14:56:49.700Z,29.50
2022-07-28T14:59:18.077Z,30.53
2022-07-28T15:01:48.885Z,31.46
2022-07-28T15:04:17.864Z,32.39
2022-07-28T15:06:47.409Z,33.14
2022-07-28T15:09:17.055Z,33.45
2022-07-28T15:11:47.542Z,33.74
2022-07-28T15:14:21.347Z,34.15
2022-07-28T15:16:50.550Z,33.32
2022-07-28T15:19:19.065Z,32.66
2022-07-28T15:21:47.739Z,32.70
2022-07-28T15:24:16.705Z,33.04
2022-07-28T15:26:45.529Z,34.32
2022-07-28T15:29:13.908Z,35.17
2022-07-28T15:31:45.550Z,35.90
2022-07-28T15:34:16.553Z,36.63
2022-07-28T15:36:45.249Z,37.17
2022-07-28T15:39:15.230Z,37.59
2022-07-28T15:41:44.298Z,37.94
2022-07-28T15:44:13.945Z,38.41
2022-07-28T15:46:44.353Z,38.83
2022-07-28T15:49:15.074Z,37.77
2022-07-28T15:51:43.389Z,38.15
2022-07-28T15:54:11.856Z,38.67
2022-07-28T15:56:40.300Z,38.10
2022-07-28T15:59:09.446Z,36.84
2022-07-28T16:01:41.975Z,36.71
2022-07-28T16:04:14.786Z,36.46
2022-07-28T16:07:00.855Z,37.57
2022-07-28T16:09:45.734Z,39.24
2022-07-28T16:12:15.575Z,40.27
2022-07-28T16:14:44.092Z,41.35
2022-07-28T16:17:13.316Z,42.09
2022-07-28T16:19:49.636Z,42.51
2022-07-28T16:22:19.356Z,43.07
2022-07-28T16:24:48.412Z,43.54
2022-07-28T16:27:16.718Z,43.39
2022-07-28T16:29:45.455Z,43.47
2022-07-28T16:32:14.313Z,43.00
2022-07-28T16:34:44.355Z,41.34
2022-07-28T16:37:17.499Z,39.63
2022-07-28T16:39:47.484Z,40.16
2022-07-28T16:42:15.998Z,40.82
2022-07-28T16:44:44.333Z,41.73
2022-07-28T16:47:12.711Z,42.17
2022-07-28T16:49:45.562Z,42.48
2022-07-28T16:52:15.766Z,42.54
2022-07-28T16:54:44.004Z,42.23
2022-07-28T16:57:13.745Z,41.73
2022-07-28T16:59:48.926Z,41.81
2022-07-28T17:02:18.554Z,40.38
2022-07-28T17:04:47.404Z,39.65
2022-07-28T17:07:17.187Z,39.30
2022-07-28T17:09:46.130Z,38.86
2022-07-28T17:12:14.657Z,37.63
2022-07-28T17:14:42.844Z,35.94
2022-07-28T17:17:11.233Z,34.93
2022-07-28T17:19:44.892Z,33.40
2022-07-28T17:22:16.937Z,32.12
2022-07-28T17:24:45.337Z,31.52
2022-07-28T17:30:01.941Z,30.15
2022-07-28T17:32:30.162Z,29.90
2022-07-28T17:34:58.544Z,29.62
2022-07-28T17:37:29.220Z,29.45
2022-07-28T17:39:58.782Z,29.19
2022-07-28T17:42:26.969Z,28.95
2022-07-28T17:44:56.627Z,28.41
2022-07-28T17:47:35.783Z,28.20
2022-07-28T17:50:07.575Z,28.04
2022-07-28T17:52:37.212Z,27.53
2022-07-28T17:55:24.057Z,27.69
2022-07-28T17:57:53.115Z,26.63
2022-07-28T18:00:22.329Z,27.24
2022-07-28T18:02:51.752Z,27.21
2022-07-28T18:05:20.860Z,26.67
2022-07-28T18:07:53.674Z,27.01
2022-07-28T18:10:27.034Z,26.16
2022-07-28T18:12:55.604Z,25.99
2022-07-28T18:15:23.780Z,26.65
2022-07-28T18:17:55.385Z,26.54
2022-07-28T18:20:24.969Z,26.30
2022-07-28T18:22:54.803Z,26.17
2022-07-28T18:25:22.984Z,25.90
2022-07-28T18:27:51.420Z,26.05
2022-07-28T18:30:19.938Z,25.94
2022-07-28T18:32:48.526Z,25.84
2022-07-28T18:35:17.545Z,25.78
2022-07-28T18:37:46.384Z,25.47
2022-07-28T18:40:18.741Z,25.52
2022-07-28T18:42:47.095Z,25.54
2022-07-28T18:45:16.370Z,25.48
2022-07-28T18:47:46.597Z,24.68
2022-07-28T18:50:27.606Z,25.37
2022-07-28T18:53:00.872Z,25.02
2022-07-28T18:55:30.625Z,25.27
2022-07-28T18:57:59.583Z,25.03
2022-07-28T19:00:27.926Z,25.24
2022-07-28T19:02:56.350Z,25.24
2022-07-28T19:05:24.852Z,24.57
2022-07-28T19:07:53.156Z,25.12
2022-07-28T19:10:21.402Z,25.12
2022-07-28T19:12:54.339Z,25.07
2022-07-28T19:15:22.795Z,24.99
2022-07-28T19:18:10.366Z,24.98
2022-07-28T19:20:40.506Z,24.26
2022-07-28T19:23:08.747Z,24.94
2022-07-28T19:25:37.900Z,24.64
2022-07-28T19:28:09.774Z,25.08
2022-07-28T19:30:38.438Z,24.98
2022-07-28T19:33:07.085Z,24.19
2022-07-28T19:35:35.662Z,24.42
2022-07-28T19:38:04.306Z,24.65
2022-07-28T19:40:33.041Z,23.93
2022-07-28T19:43:01.647Z,24.81
2022-07-28T19:45:31.331Z,24.56
2022-07-28T19:48:00.247Z,24.62
2022-07-28T19:50:28.695Z,24.38
2022-07-28T19:52:57.074Z,24.34
2022-07-28T19:55:27.123Z,24.50
2022-07-28T19:57:59.396Z,24.17
2022-07-28T20:00:27.794Z,23.68
2022-07-28T20:02:57.519Z,24.41
2022-07-28T20:05:25.920Z,24.17
2022-07-28T20:07:54.726Z,24.40
2022-07-28T20:10:23.298Z,24.50
2022-07-28T20:12:51.908Z,24.29
2022-07-28T20:15:20.519Z,23.88
2022-07-28T20:17:49.608Z,24.57
2022-07-28T20:20:19.647Z,24.55
2022-07-28T20:22:48.763Z,24.53
2022-07-28T20:25:17.673Z,24.05
2022-07-28T20:27:46.024Z,24.26
2022-07-28T20:30:15.400Z,24.38
2022-07-28T20:32:45.273Z,24.39
2022-07-28T20:35:13.680Z,24.37
2022-07-28T20:37:43.300Z,24.16
2022-07-28T20:40:12.502Z,23.90
2022-07-28T20:42:40.729Z,24.15
2022-07-28T20:45:09.588Z,24.38
2022-07-28T20:47:38.997Z,24.28
2022-07-28T20:50:09.134Z,23.77
2022-07-28T20:52:37.437Z,24.21
2022-07-28T20:55:12.622Z,24.21
2022-07-28T20:57:41.230Z,24.13
2022-07-28T21:00:22.398Z,24.01
2022-07-28T21:02:50.736Z,23.79
2022-07-28T21:05:26.675Z,23.72
2022-07-28T21:08:06.125Z,23.66
2022-07-28T21:10:39.033Z,23.71
2022-07-28T21:13:07.662Z,23.69
2022-07-28T21:15:35.910Z,23.37
2022-07-28T21:18:04.321Z,23.37
2022-07-28T21:20:32.555Z,23.53
2022-07-28T21:23:01.100Z,23.56
2022-07-28T21:25:31.626Z,23.33
2022-07-28T21:28:18.576Z,23.57
2022-07-28T21:30:46.802Z,23.59
2022-07-28T21:33:22.621Z,23.46
2022-07-28T21:35:51.641Z,22.65
2022-07-28T21:38:19.948Z,23.37
2022-07-28T21:40:48.168Z,23.19
2022-07-28T21:43:18.003Z,23.08
2022-07-28T21:45:46.943Z,23.00
2022-07-28T21:48:17.071Z,23.00
2022-07-28T21:50:45.421Z,23.01
2022-07-28T21:53:17.143Z,22.66
2022-07-28T21:55:46.595Z,22.83
2022-07-28T21:58:16.079Z,22.93
2022-07-28T22:00:45.953Z,22.93
2022-07-28T22:03:14.248Z,23.01
2022-07-28T22:05:43.133Z,22.89
2022-07-28T22:08:11.426Z,22.74
2022-07-28T22:10:39.697Z,22.74
2022-07-28T22:13:07.899Z,22.71
2022-07-28T22:15:36.171Z,22.55
2022-07-28T22:18:06.226Z,22.85
2022-07-28T22:20:34.484Z,22.84
2022-07-28T22:23:18.656Z,22.79
2022-07-28T22:25:53.919Z,22.73
2022-07-28T22:28:29.596Z,22.90
2022-07-28T22:31:08.885Z,22.76
2022-07-28T22:33:44.266Z,22.57
2022-07-28T22:36:12.758Z,22.64
2022-07-28T22:38:41.390Z,22.70
2022-07-28T22:41:11.213Z,22.79
2022-07-28T22:43:39.528Z,21.86
2022-07-28T22:46:10.466Z,22.59
2022-07-28T22:48:38.874Z,22.55
2022-07-28T22:51:12.673Z,21.80
2022-07-28T22:53:41.360Z,22.58
2022-07-28T22:56:10.871Z,22.51
2022-07-28T22:58:40.279Z,22.59
2022-07-28T23:01:08.839Z,22.60
2022-07-28T23:03:37.653Z,22.62
2022-07-28T23:06:06.722Z,22.49
2022-07-28T23:08:36.560Z,22.55
2022-07-28T23:11:06.537Z,22.45
2022-07-28T23:13:35.042Z,22.54
2022-07-28T23:16:03.310Z,22.47
2022-07-28T23:18:31.596Z,22.43
2022-07-28T23:20:59.809Z,22.21
2022-07-28T23:23:28.158Z,22.45
2022-07-28T23:25:57.808Z,22.43
2022-07-28T23:28:26.254Z,22.68
2022-07-28T23:30:54.443Z,22.54
2022-07-28T23:33:56.005Z,21.77
2022-07-28T23:36:15.082Z,22.42
2022-07-28T23:38:55.368Z,22.39
2022-07-28T23:41:25.866Z,22.42
2022-07-28T23:43:54.111Z,22.45
2022-07-28T23:46:22.721Z,22.05
2022-07-28T23:48:51.983Z,22.24
2022-07-28T23:51:21.401Z,22.47
2022-07-28T23:53:54.368Z,22.47
2022-07-28T23:56:26.168Z,21.97
2022-07-28T23:58:54.381Z,22.48
